createdAt,value
2022-12-08T00:01:41.940Z,25.17
2022-12-08T00:04:08.903Z,28.42
2022-12-08T00:06:37.392Z,31.77
2022-12-08T00:09:04.397Z,30.00
2022-12-08T00:11:31.287Z,28.92
2022-12-08T00:13:58.327Z,40.70
2022-12-08T00:16:25.303Z,42.17
2022-12-08T00:18:52.281Z,42.85
2022-12-08T00:21:19.106Z,42.23
2022-12-08T00:23:46.036Z,29.77
2022-12-08T00:26:12.870Z,32.60
2022-12-08T00:28:39.719Z,37.40
2022-12-08T00:31:11.503Z,35.45
2022-12-08T00:33:39.203Z,33.53
2022-12-08T00:36:10.869Z,25.90
2022-12-08T00:38:38.598Z,22.88
2022-12-08T00:41:12.116Z,35.95
2022-12-08T00:43:39.093Z,31.98
2022-12-08T00:46:06.199Z,27.60
2022-12-08T00:48:33.243Z,29.80
2022-12-08T00:51:00.179Z,37.72
2022-12-08T00:53:27.070Z,43.47
2022-12-08T00:55:53.855Z,43.75
2022-12-08T00:58:20.746Z,35.07
2022-12-08T01:00:47.799Z,31.95
2022-12-08T01:03:15.567Z,34.00
2022-12-08T01:05:42.509Z,33.60
2022-12-08T01:08:09.545Z,35.50
2022-12-08T01:10:36.868Z,39.87
2022-12-08T01:13:04.433Z,40.75
2022-12-08T01:15:31.445Z,41.10
2022-12-08T01:17:58.506Z,51.45
2022-12-08T01:20:25.385Z,44.15
2022-12-08T01:22:52.189Z,46.73
2022-12-08T01:25:19.248Z,46.10
2022-12-08T01:27:46.106Z,46.25
2022-12-08T01:30:13.442Z,54.00
2022-12-08T01:32:40.384Z,50.20
2022-12-08T01:35:07.476Z,36.23
2022-12-08T01:37:34.426Z,36.00
2022-12-08T01:40:01.677Z,36.20
2022-12-08T01:42:29.010Z,34.30
2022-12-08T01:45:00.522Z,32.22
2022-12-08T01:47:33.384Z,32.90
2022-12-08T01:50:00.912Z,32.53
2022-12-08T01:52:36.865Z,30.92
2022-12-08T01:55:12.961Z,39.17
2022-12-08T01:57:47.581Z,45.88
2022-12-08T02:00:18.399Z,43.07
2022-12-08T02:03:09.484Z,47.05
2022-12-08T02:05:40.136Z,46.70
2022-12-08T02:08:09.403Z,42.67
2022-12-08T02:10:39.319Z,39.95
2022-12-08T02:13:09.831Z,38.10
2022-12-08T02:15:56.329Z,41.25
2022-12-08T02:18:32.293Z,42.17
2022-12-08T02:21:26.238Z,37.88
2022-12-08T02:24:18.135Z,34.10
2022-12-08T02:27:03.434Z,32.63
2022-12-08T02:29:45.367Z,38.72
2022-12-08T02:32:42.482Z,40.78
2022-12-08T02:35:21.886Z,40.30
2022-12-08T02:38:15.033Z,30.60
2022-12-08T02:41:18.149Z,36.53
2022-12-08T02:43:51.309Z,40.33
2022-12-08T02:46:58.372Z,41.83
2022-12-08T02:49:30.209Z,42.30
2022-12-08T02:52:12.278Z,40.63
2022-12-08T02:54:47.516Z,45.47
2022-12-08T02:57:44.434Z,42.90
2022-12-08T03:00:20.511Z,38.50
2022-12-08T03:03:06.122Z,37.35
2022-12-08T03:06:08.807Z,35.47
2022-12-08T03:09:13.093Z,38.67
2022-12-08T03:11:52.164Z,41.30
2022-12-08T03:14:21.936Z,45.20
2022-12-08T03:16:52.909Z,45.35
2022-12-08T03:19:27.457Z,45.17
2022-12-08T03:21:58.091Z,42.37
2022-12-08T03:24:24.898Z,40.05
2022-12-08T03:27:05.984Z,47.42
2022-12-08T03:29:33.328Z,46.08
2022-12-08T03:32:35.423Z,37.72
2022-12-08T03:35:08.139Z,45.30
2022-12-08T03:37:36.741Z,41.47
2022-12-08T03:40:06.421Z,38.35
2022-12-08T03:42:33.513Z,42.13
2022-12-08T03:45:00.340Z,39.40
2022-12-08T03:47:27.231Z,39.53
2022-12-08T03:49:54.109Z,35.67
2022-12-08T03:52:21.006Z,38.03
2022-12-08T03:54:48.190Z,34.83
2022-12-08T03:57:15.064Z,29.77
2022-12-08T03:59:42.024Z,31.27
2022-12-08T04:02:08.910Z,29.50
2022-12-08T04:04:35.922Z,28.25
2022-12-08T04:07:02.868Z,42.83
2022-12-08T04:09:29.757Z,43.95
2022-12-08T04:11:56.709Z,42.57
2022-12-08T04:14:23.582Z,38.08
2022-12-08T04:16:50.457Z,29.83
2022-12-08T04:19:17.458Z,28.92
2022-12-08T04:21:44.298Z,30.77
2022-12-08T04:24:11.260Z,33.77
2022-12-08T04:26:38.124Z,33.08
2022-12-08T04:29:04.977Z,32.42
2022-12-08T04:31:31.984Z,28.90
2022-12-08T04:33:59.226Z,27.65
2022-12-08T04:36:26.123Z,28.47
2022-12-08T04:38:53.029Z,25.95
2022-12-08T04:41:19.967Z,26.42
2022-12-08T04:43:46.898Z,28.60
2022-12-08T04:46:13.827Z,29.45
2022-12-08T04:48:41.682Z,27.00
2022-12-08T04:51:17.813Z,27.30
2022-12-08T04:53:46.905Z,28.65
2022-12-08T04:56:16.706Z,39.13
2022-12-08T04:58:44.304Z,33.88
2022-12-08T05:01:11.713Z,32.13
2022-12-08T05:03:38.842Z,29.17
2022-12-08T05:06:06.079Z,27.85
2022-12-08T05:08:33.699Z,24.33
2022-12-08T05:11:09.071Z,26.50
2022-12-08T05:13:36.030Z,36.83
2022-12-08T05:16:08.704Z,44.72
2022-12-08T05:18:36.824Z,35.78
2022-12-08T05:21:05.341Z,42.25
2022-12-08T05:23:32.521Z,41.33
2022-12-08T05:25:59.872Z,43.20
2022-12-08T05:28:43.487Z,45.03
2022-12-08T05:31:15.574Z,48.38
2022-12-08T05:33:43.173Z,46.60
2022-12-08T05:36:12.883Z,48.03
2022-12-08T05:38:40.601Z,56.33
2022-12-08T05:41:08.238Z,54.22
2022-12-08T05:43:35.778Z,42.38
2022-12-08T05:46:02.946Z,53.90
2022-12-08T05:48:29.941Z,46.22
2022-12-08T05:50:56.816Z,40.23
2022-12-08T05:53:23.730Z,50.80
2022-12-08T05:55:50.610Z,54.72
2022-12-08T05:58:22.437Z,57.40
2022-12-08T06:00:50.896Z,62.63
2022-12-08T06:03:19.467Z,50.87
2022-12-08T06:05:47.602Z,45.00
2022-12-08T06:08:14.756Z,46.55
2022-12-08T06:10:43.734Z,45.00
2022-12-08T06:13:11.278Z,48.45
2022-12-08T06:15:40.118Z,53.60
2022-12-08T06:18:08.235Z,52.25
2022-12-08T06:20:36.525Z,58.75
2022-12-08T06:23:03.409Z,64.53
2022-12-08T06:25:30.588Z,64.80
2022-12-08T06:27:57.545Z,64.83
2022-12-08T06:30:24.482Z,68.22
2022-12-08T06:32:51.366Z,63.88
2022-12-08T06:35:18.298Z,70.10
2022-12-08T06:37:45.115Z,67.03
2022-12-08T06:40:12.444Z,66.50
2022-12-08T06:42:39.401Z,56.42
2022-12-08T06:45:06.785Z,64.60
2022-12-08T06:47:33.688Z,63.30
2022-12-08T06:50:00.852Z,56.55
2022-12-08T06:52:27.826Z,57.50
2022-12-08T06:54:54.838Z,58.00
2022-12-08T06:57:21.858Z,62.28
2022-12-08T06:59:48.665Z,64.25
2022-12-08T07:02:15.747Z,62.05
2022-12-08T07:04:42.575Z,48.77
2022-12-08T07:07:09.714Z,51.75
2022-12-08T07:09:37.019Z,53.83
2022-12-08T07:12:04.557Z,89.25
2022-12-08T07:14:31.350Z,71.95
2022-12-08T07:16:58.418Z,72.07
2022-12-08T07:19:25.209Z,68.00
2022-12-08T07:21:52.101Z,72.65
2022-12-08T07:24:18.908Z,80.80
2022-12-08T07:26:45.794Z,72.50
2022-12-08T07:29:12.749Z,73.87
2022-12-08T07:31:39.528Z,73.45
2022-12-08T07:34:06.544Z,83.05
2022-12-08T07:36:33.758Z,81.18
2022-12-08T07:39:00.725Z,363.00
2022-12-08T07:41:27.546Z,281.90
2022-12-08T07:43:55.615Z,237.68
2022-12-08T07:46:24.087Z,229.90
2022-12-08T07:48:52.245Z,267.25
2022-12-08T07:51:19.491Z,152.90
2022-12-08T07:53:53.767Z,141.37
2022-12-08T07:56:22.640Z,98.00
2022-12-08T07:58:49.584Z,82.07
2022-12-08T08:01:25.843Z,66.63
2022-12-08T08:03:53.725Z,67.20
2022-12-08T08:06:20.609Z,55.47
2022-12-08T08:08:47.654Z,56.90
2022-12-08T08:11:20.778Z,59.33
2022-12-08T08:13:48.628Z,68.88
2022-12-08T08:16:15.683Z,64.93
2022-12-08T08:18:42.756Z,60.03
2022-12-08T08:21:43.165Z,59.88
2022-12-08T08:23:56.807Z,62.80
2022-12-08T08:26:23.745Z,61.30
2022-12-08T08:28:50.579Z,60.47
2022-12-08T08:31:17.629Z,59.77
2022-12-08T08:33:44.555Z,65.35
2022-12-08T08:36:11.527Z,61.85
2022-12-08T08:38:38.542Z,62.80
2022-12-08T08:41:09.619Z,61.13
2022-12-08T08:43:38.569Z,55.23
2022-12-08T08:46:07.211Z,58.88
2022-12-08T08:48:34.180Z,56.10
2022-12-08T08:51:08.675Z,51.80
2022-12-08T08:53:36.094Z,56.47
2022-12-08T08:56:03.214Z,51.83
2022-12-08T08:58:30.045Z,58.08
2022-12-08T09:00:56.909Z,55.25
2022-12-08T09:03:23.686Z,55.80
2022-12-08T09:05:50.800Z,57.45
2022-12-08T09:08:17.863Z,59.00
2022-12-08T09:10:44.863Z,58.25
2022-12-08T09:13:11.652Z,63.58
2022-12-08T09:15:38.729Z,63.40
2022-12-08T09:18:05.980Z,61.45
2022-12-08T09:20:34.463Z,64.63
2022-12-08T09:23:01.946Z,58.97
2022-12-08T09:25:29.602Z,59.80
2022-12-08T09:27:56.424Z,55.00
2022-12-08T09:30:23.490Z,53.55
2022-12-08T09:32:50.359Z,54.27
2022-12-08T09:35:17.258Z,55.80
2022-12-08T09:37:44.209Z,52.78
2022-12-08T09:40:17.586Z,53.53
2022-12-08T09:42:52.446Z,54.08
2022-12-08T09:45:20.274Z,52.77
2022-12-08T09:47:59.602Z,50.08
2022-12-08T09:50:35.576Z,46.92
2022-12-08T09:53:11.650Z,45.03
2022-12-08T09:55:59.475Z,38.22
2022-12-08T09:58:38.304Z,34.97
2022-12-08T10:01:05.193Z,35.22
2022-12-08T10:03:32.121Z,34.83
2022-12-08T10:06:19.597Z,35.17
2022-12-08T10:09:11.126Z,38.03
2022-12-08T10:11:49.869Z,40.87
2022-12-08T10:14:38.875Z,55.92
2022-12-08T10:17:36.397Z,60.72
2022-12-08T10:20:11.093Z,45.70
2022-12-08T10:22:44.351Z,46.17
2022-12-08T10:25:14.620Z,51.77
2022-12-08T10:27:41.545Z,39.08
2022-12-08T10:30:17.907Z,34.33
2022-12-08T10:32:48.321Z,32.28
2022-12-08T10:35:17.346Z,35.83
2022-12-08T10:38:00.796Z,27.97
2022-12-08T10:40:36.104Z,34.50
2022-12-08T10:43:06.183Z,30.92
2022-12-08T10:45:38.673Z,32.22
2022-12-08T10:48:30.455Z,32.25
2022-12-08T10:50:59.353Z,32.90
2022-12-08T10:53:28.747Z,28.25
2022-12-08T10:56:04.488Z,31.20
2022-12-08T10:58:37.062Z,25.48
2022-12-08T11:01:11.400Z,27.40
2022-12-08T11:04:02.323Z,27.27
2022-12-08T11:06:29.192Z,31.08
2022-12-08T11:08:58.696Z,27.65
2022-12-08T11:11:47.478Z,28.75
2022-12-08T11:14:46.332Z,28.58
2022-12-08T11:17:21.826Z,30.60
2022-12-08T11:20:04.928Z,25.17
2022-12-08T11:22:37.634Z,22.30
2022-12-08T11:25:21.146Z,25.13
2022-12-08T11:27:50.331Z,22.92
2022-12-08T11:30:20.208Z,22.90
2022-12-08T11:32:50.155Z,26.63
2022-12-08T11:35:38.925Z,19.95
2022-12-08T11:38:30.920Z,23.10
2022-12-08T11:41:21.424Z,19.55
2022-12-08T11:44:12.978Z,21.80
2022-12-08T11:47:14.873Z,20.83
2022-12-08T11:49:43.184Z,20.27
2022-12-08T11:52:32.700Z,21.20
2022-12-08T11:55:21.085Z,21.38
2022-12-08T11:57:49.146Z,18.97
2022-12-08T12:00:17.800Z,21.80
2022-12-08T12:02:53.497Z,23.25
2022-12-08T12:08:54.326Z,25.63
2022-12-08T12:11:32.509Z,28.80
2022-12-08T12:14:38.166Z,30.40
2022-12-08T12:17:08.352Z,23.92
2022-12-08T12:19:39.845Z,25.80
2022-12-08T12:22:17.032Z,25.02
2022-12-08T12:24:48.295Z,26.43
2022-12-08T12:27:15.198Z,24.52
2022-12-08T12:29:56.419Z,23.60
2022-12-08T12:32:24.632Z,22.98
2022-12-08T12:34:55.410Z,19.30
2022-12-08T12:37:36.146Z,20.83
2022-12-08T12:40:06.087Z,25.45
2022-12-08T12:42:46.192Z,25.13
2022-12-08T12:45:16.293Z,20.48
2022-12-08T12:47:58.340Z,18.25
2022-12-08T12:50:34.263Z,18.27
2022-12-08T12:53:03.346Z,18.08
2022-12-08T12:55:57.202Z,17.55
2022-12-08T12:58:30.722Z,18.55
2022-12-08T13:01:12.349Z,22.83
2022-12-08T13:03:44.289Z,19.43
2022-12-08T13:06:14.793Z,23.58
2022-12-08T13:08:51.296Z,20.27
2022-12-08T13:11:18.532Z,23.08
2022-12-08T13:14:04.394Z,19.92
2022-12-08T13:16:38.190Z,24.40
2022-12-08T13:19:14.040Z,24.30
2022-12-08T13:21:41.291Z,20.27
2022-12-08T13:24:10.864Z,17.65
2022-12-08T13:26:48.926Z,24.50
2022-12-08T13:29:26.352Z,18.37
2022-12-08T13:32:00.402Z,21.85
2022-12-08T13:34:36.434Z,34.28
2022-12-08T13:37:12.581Z,24.77
2022-12-08T13:39:39.371Z,18.50
2022-12-08T13:42:12.592Z,20.07
2022-12-08T13:57:08.607Z,15.03
2022-12-08T13:59:44.559Z,18.58
2022-12-08T14:02:45.298Z,18.25
2022-12-08T14:05:18.551Z,17.52
2022-12-08T14:08:02.717Z,17.27
2022-12-08T14:10:31.735Z,19.37
2022-12-08T14:13:03.807Z,19.70
2022-12-08T14:15:37.901Z,18.83
2022-12-08T14:18:06.887Z,16.45
2022-12-08T14:20:57.933Z,17.27
2022-12-08T14:23:22.936Z,18.77
2022-12-08T14:25:49.960Z,19.00
2022-12-08T14:28:16.944Z,20.70
2022-12-08T14:30:44.130Z,19.73
2022-12-08T14:33:16.533Z,18.10
2022-12-08T14:35:49.722Z,21.63
2022-12-08T14:38:19.111Z,21.45
2022-12-08T14:41:02.278Z,19.55
2022-12-08T14:43:30.950Z,19.13
2022-12-08T14:46:01.581Z,19.50
2022-12-08T14:48:31.657Z,29.13
2022-12-08T14:50:58.551Z,30.80
2022-12-08T14:53:26.376Z,24.75
2022-12-08T14:55:53.257Z,28.63
2022-12-08T14:58:29.305Z,28.63
2022-12-08T15:01:00.719Z,24.13
2022-12-08T15:03:31.485Z,21.63
2022-12-08T15:06:03.280Z,22.40
2022-12-08T15:08:31.830Z,27.60
2022-12-08T15:11:30.323Z,25.85
2022-12-08T15:13:57.153Z,23.07
2022-12-08T15:16:43.903Z,27.30
2022-12-08T15:19:18.805Z,26.27
2022-12-08T15:21:46.690Z,22.40
2022-12-08T15:24:15.340Z,25.40
2022-12-08T15:26:46.317Z,27.83
2022-12-08T15:29:26.863Z,26.98
2022-12-08T15:31:57.350Z,26.00
2022-12-08T15:34:24.942Z,26.95
2022-12-08T15:36:53.812Z,25.13
2022-12-08T15:39:37.841Z,27.03
2022-12-08T15:42:10.750Z,27.50
2022-12-08T15:44:37.578Z,24.45
2022-12-08T15:47:04.825Z,26.48
2022-12-08T15:49:31.716Z,22.58
2022-12-08T15:52:10.586Z,22.33
2022-12-08T15:54:38.211Z,22.85
2022-12-08T15:57:22.191Z,22.42
2022-12-08T15:59:53.631Z,21.77
2022-12-08T16:02:22.786Z,20.77
2022-12-08T16:07:37.641Z,21.80
2022-12-08T16:10:07.474Z,20.75
2022-12-08T16:13:19.913Z,25.02
2022-12-08T16:18:26.398Z,20.20
2022-12-08T16:23:43.470Z,16.98
2022-12-08T16:26:49.102Z,15.45
2022-12-08T16:29:10.105Z,11.32
2022-12-08T16:31:37.214Z,12.70
2022-12-08T16:34:04.026Z,13.60
2022-12-08T16:36:31.126Z,13.57
2022-12-08T16:38:58.288Z,13.68
2022-12-08T16:41:25.233Z,8.75
2022-12-08T16:43:52.757Z,8.60
2022-12-08T16:46:21.447Z,6.82
2022-12-08T16:48:48.427Z,11.00
2022-12-08T16:51:22.001Z,13.77
2022-12-08T16:53:52.442Z,11.35
2022-12-08T16:56:20.883Z,11.37
2022-12-08T16:58:48.258Z,22.85
2022-12-08T17:01:17.523Z,26.08
2022-12-08T17:04:01.414Z,24.00
2022-12-08T17:06:33.520Z,20.77
2022-12-08T17:09:00.931Z,21.93
2022-12-08T17:11:27.850Z,16.58
2022-12-08T17:13:54.774Z,18.05
2022-12-08T17:16:22.054Z,15.68
2022-12-08T17:18:49.118Z,15.32
2022-12-08T17:21:17.853Z,13.70
2022-12-08T17:23:45.553Z,13.25
2022-12-08T17:26:14.332Z,16.35
2022-12-08T17:28:59.882Z,16.25
2022-12-08T17:31:30.187Z,15.95
2022-12-08T17:34:02.516Z,16.80
2022-12-08T17:36:29.942Z,16.45
2022-12-08T17:38:58.616Z,16.90
2022-12-08T17:41:25.678Z,18.38
2022-12-08T17:43:52.502Z,30.10
2022-12-08T17:46:20.470Z,23.93
2022-12-08T17:48:47.749Z,27.55
2022-12-08T17:51:15.362Z,21.33
2022-12-08T17:53:42.688Z,24.75
2022-12-08T17:56:21.343Z,24.77
2022-12-08T17:58:54.299Z,25.63
2022-12-08T18:01:23.139Z,22.92
2022-12-08T18:03:50.489Z,25.40
2022-12-08T18:06:17.587Z,34.88
2022-12-08T18:08:45.213Z,35.90
2022-12-08T18:11:19.013Z,24.10
2022-12-08T18:13:48.154Z,32.03
2022-12-08T18:16:17.270Z,25.80
2022-12-08T18:18:44.309Z,25.90
2022-12-08T18:21:12.375Z,31.08
2022-12-08T18:23:41.446Z,27.13
2022-12-08T18:26:10.364Z,24.25
2022-12-08T18:28:37.962Z,28.17
2022-12-08T18:31:17.187Z,26.40
2022-12-08T18:33:45.607Z,33.70
2022-12-08T18:36:24.048Z,29.97
2022-12-08T18:38:52.195Z,27.60
2022-12-08T18:41:23.055Z,25.45
2022-12-08T18:43:50.188Z,22.88
2022-12-08T18:46:17.317Z,24.83
2022-12-08T18:48:47.070Z,29.53
2022-12-08T18:51:16.822Z,25.67
2022-12-08T18:53:44.614Z,24.25
2022-12-08T18:56:41.013Z,26.63
2022-12-08T18:59:11.487Z,28.00
2022-12-08T19:01:39.953Z,27.40
2022-12-08T19:06:57.788Z,27.38
2022-12-08T19:09:25.098Z,28.02
2022-12-08T19:11:55.650Z,25.90
2022-12-08T19:14:28.596Z,26.40
2022-12-08T19:16:56.399Z,31.05
2022-12-08T19:19:24.201Z,30.10
2022-12-08T19:21:51.331Z,30.10
2022-12-08T19:24:18.417Z,30.73
2022-12-08T19:26:45.908Z,35.67
2022-12-08T19:29:13.224Z,33.58
2022-12-08T19:31:40.884Z,32.83
2022-12-08T19:34:08.818Z,34.70
2022-12-08T19:36:38.726Z,33.75
2022-12-08T19:39:05.762Z,29.63
2022-12-08T19:41:33.244Z,25.38
2022-12-08T19:44:00.236Z,29.48
2022-12-08T19:46:27.297Z,26.90
2022-12-08T19:48:54.306Z,32.10
2022-12-08T19:51:21.262Z,28.27
2022-12-08T19:53:48.251Z,28.55
2022-12-08T19:56:15.099Z,41.72
2022-12-08T19:58:42.046Z,37.75
2022-12-08T20:01:09.157Z,28.50
2022-12-08T20:03:36.218Z,31.53
2022-12-08T20:06:04.567Z,26.20
2022-12-08T20:08:31.439Z,32.92
2022-12-08T20:10:58.532Z,37.95
2022-12-08T20:13:25.479Z,38.33
2022-12-08T20:15:53.354Z,38.47
2022-12-08T20:18:21.102Z,35.15
2022-12-08T20:20:48.317Z,34.67
2022-12-08T20:23:16.637Z,36.17
2022-12-08T20:25:45.478Z,44.78
2022-12-08T20:28:12.635Z,49.33
2022-12-08T20:30:41.247Z,44.97
2022-12-08T20:33:08.348Z,48.42
2022-12-08T20:35:35.211Z,48.40
2022-12-08T20:38:02.239Z,36.22
2022-12-08T20:40:29.259Z,37.03
2022-12-08T20:42:56.454Z,35.15
2022-12-08T20:45:23.338Z,38.92
2022-12-08T20:47:50.409Z,36.63
2022-12-08T20:50:17.485Z,32.70
2022-12-08T20:52:44.543Z,33.07
2022-12-08T20:55:11.474Z,34.97
2022-12-08T20:57:38.685Z,30.17
2022-12-08T21:00:07.506Z,32.15
2022-12-08T21:02:34.941Z,31.38
2022-12-08T21:05:02.082Z,30.13
2022-12-08T21:07:29.550Z,39.63
2022-12-08T21:09:56.605Z,31.38
2022-12-08T21:12:23.675Z,34.15
2022-12-08T21:14:51.145Z,34.33
2022-12-08T21:17:18.318Z,29.63
2022-12-08T21:19:45.630Z,32.55
2022-12-08T21:22:12.532Z,29.27
2022-12-08T21:24:39.500Z,26.35
2022-12-08T21:27:06.440Z,32.22
2022-12-08T21:29:33.361Z,32.10
2022-12-08T21:32:00.328Z,36.78
2022-12-08T21:34:28.161Z,35.47
2022-12-08T21:36:55.025Z,26.90
2022-12-08T21:39:22.252Z,37.90
2022-12-08T21:41:49.331Z,39.13
2022-12-08T21:44:17.452Z,39.50
2022-12-08T21:46:44.634Z,32.90
2022-12-08T21:49:11.697Z,29.38
2022-12-08T21:51:38.604Z,33.33
2022-12-08T21:54:05.584Z,31.13
2022-12-08T21:56:32.969Z,27.50
2022-12-08T21:58:59.952Z,29.45
2022-12-08T22:01:27.175Z,28.45
2022-12-08T22:03:54.407Z,33.15
2022-12-08T22:06:21.718Z,29.33
2022-12-08T22:08:48.786Z,29.70
2022-12-08T22:11:15.855Z,32.10
2022-12-08T22:13:42.869Z,35.60
2022-12-08T22:16:12.837Z,28.63
2022-12-08T22:18:40.100Z,29.93
2022-12-08T22:21:14.959Z,38.45
2022-12-08T22:23:42.913Z,39.83
2022-12-08T22:26:11.108Z,43.88
2022-12-08T22:28:41.568Z,36.13
2022-12-08T22:31:17.413Z,31.93
2022-12-08T22:33:44.782Z,30.83
2022-12-08T22:36:16.045Z,30.33
2022-12-08T22:38:43.250Z,33.15
2022-12-08T22:41:10.154Z,27.75
2022-12-08T22:43:37.922Z,27.93
2022-12-08T22:46:15.539Z,39.60
2022-12-08T22:48:42.776Z,31.73
2022-12-08T22:51:10.401Z,36.70
2022-12-08T22:53:37.734Z,34.30
2022-12-08T22:56:05.902Z,32.37
2022-12-08T22:58:32.906Z,36.15
2022-12-08T23:00:59.884Z,40.10
2022-12-08T23:03:27.272Z,46.40
2022-12-08T23:05:54.719Z,47.90
2022-12-08T23:08:21.792Z,50.53
2022-12-08T23:10:51.120Z,47.38
2022-12-08T23:13:18.614Z,45.33
2022-12-08T23:15:45.981Z,33.65
2022-12-08T23:18:18.074Z,34.00
2022-12-08T23:20:45.944Z,37.50
2022-12-08T23:23:13.713Z,51.25
2022-12-08T23:25:43.927Z,47.22
2022-12-08T23:28:12.911Z,47.97
2022-12-08T23:30:40.783Z,37.13
2022-12-08T23:33:07.909Z,38.73
2022-12-08T23:35:35.349Z,40.58
2022-12-08T23:38:02.504Z,39.00
2022-12-08T23:40:29.567Z,36.88
2022-12-08T23:42:56.581Z,33.08
2022-12-08T23:45:23.706Z,28.77
2022-12-08T23:47:50.747Z,27.50
2022-12-08T23:50:17.830Z,37.58
2022-12-08T23:52:45.566Z,39.90
2022-12-08T23:55:12.635Z,40.67
2022-12-08T23:57:39.644Z,42.43
